sensor_id;sensor_type;location;lat;lon;timestamp;P1;durP1;ratioP1;P2;durP2;ratioP2
43248;SDS011;29216;51.248;6.808;2024-03-08T00:02:07;21.83;;;13.60;;
43248;SDS011;29216;51.248;6.808;2024-03-08T00:04:33;17.70;;;13.18;;
43248;SDS011;29216;51.248;6.808;2024-03-08T00:06:59;22.13;;;13.05;;
43248;SDS011;29216;51.248;6.808;2024-03-08T00:09:25;21.75;;;14.50;;
43248;SDS011;29216;51.248;6.808;2024-03-08T00:11:52;23.17;;;14.30;;
43248;SDS011;29216;51.248;6.808;2024-03-08T00:14:18;22.17;;;13.70;;
43248;SDS011;29216;51.248;6.808;2024-03-08T00:16:45;21.10;;;13.93;;
43248;SDS011;29216;51.248;6.808;2024-03-08T00:19:11;19.30;;;13.60;;
43248;SDS011;29216;51.248;6.808;2024-03-08T00:21:37;20.83;;;12.95;;
43248;SDS011;29216;51.248;6.808;2024-03-08T00:24:03;21.20;;;14.60;;
43248;SDS011;29216;51.248;6.808;2024-03-08T00:26:29;19.05;;;13.40;;
43248;SDS011;29216;51.248;6.808;2024-03-08T00:28:55;22.80;;;13.60;;
43248;SDS011;29216;51.248;6.808;2024-03-08T00:31:21;23.52;;;13.70;;
43248;SDS011;29216;51.248;6.808;2024-03-08T00:33:47;20.58;;;13.75;;
43248;SDS011;29216;51.248;6.808;2024-03-08T00:36:13;19.65;;;13.07;;
43248;SDS011;29216;51.248;6.808;2024-03-08T00:38:39;18.65;;;13.43;;
43248;SDS011;29216;51.248;6.808;2024-03-08T00:41:05;20.40;;;13.57;;
43248;SDS011;29216;51.248;6.808;2024-03-08T00:43:31;17.25;;;13.25;;
43248;SDS011;29216;51.248;6.808;2024-03-08T00:45:57;20.88;;;13.43;;
43248;SDS011;29216;51.248;6.808;2024-03-08T00:48:23;19.40;;;14.32;;
43248;SDS011;29216;51.248;6.808;2024-03-08T00:50:49;20.27;;;13.80;;
43248;SDS011;29216;51.248;6.808;2024-03-08T00:53:16;21.38;;;14.80;;
43248;SDS011;29216;51.248;6.808;2024-03-08T00:55:42;19.80;;;13.10;;
43248;SDS011;29216;51.248;6.808;2024-03-08T00:58:11;20.73;;;13.93;;
43248;SDS011;29216;51.248;6.808;2024-03-08T01:00:37;20.23;;;14.45;;
43248;SDS011;29216;51.248;6.808;2024-03-08T01:03:04;20.40;;;14.48;;
43248;SDS011;29216;51.248;6.808;2024-03-08T01:05:30;22.30;;;14.07;;
43248;SDS011;29216;51.248;6.808;2024-03-08T01:07:56;20.83;;;14.10;;
43248;SDS011;29216;51.248;6.808;2024-03-08T01:10:22;20.60;;;14.07;;
43248;SDS011;29216;51.248;6.808;2024-03-08T01:12:48;19.33;;;13.75;;
43248;SDS011;29216;51.248;6.808;2024-03-08T01:15:14;24.50;;;14.77;;
43248;SDS011;29216;51.248;6.808;2024-03-08T01:17:40;22.05;;;14.05;;
43248;SDS011;29216;51.248;6.808;2024-03-08T01:20:09;21.05;;;13.95;;
43248;SDS011;29216;51.248;6.808;2024-03-08T01:22:39;17.33;;;13.10;;
43248;SDS011;29216;51.248;6.808;2024-03-08T01:25:05;22.15;;;13.23;;
43248;SDS011;29216;51.248;6.808;2024-03-08T01:27:31;22.35;;;14.80;;
43248;SDS011;29216;51.248;6.808;2024-03-08T01:29:57;20.70;;;14.57;;
43248;SDS011;29216;51.248;6.808;2024-03-08T01:32:24;19.85;;;13.65;;
43248;SDS011;29216;51.248;6.808;2024-03-08T01:34:50;20.00;;;14.45;;
43248;SDS011;29216;51.248;6.808;2024-03-08T01:37:16;21.80;;;14.07;;
43248;SDS011;29216;51.248;6.808;2024-03-08T01:39:42;21.80;;;14.65;;
43248;SDS011;29216;51.248;6.808;2024-03-08T01:42:08;20.85;;;13.77;;
43248;SDS011;29216;51.248;6.808;2024-03-08T01:44:37;24.45;;;14.02;;
43248;SDS011;29216;51.248;6.808;2024-03-08T01:47:04;25.90;;;14.75;;
43248;SDS011;29216;51.248;6.808;2024-03-08T01:49:30;21.45;;;14.00;;
43248;SDS011;29216;51.248;6.808;2024-03-08T01:51:56;20.73;;;15.18;;
43248;SDS011;29216;51.248;6.808;2024-03-08T01:54:22;24.02;;;15.02;;
43248;SDS011;29216;51.248;6.808;2024-03-08T01:56:48;21.95;;;15.07;;
43248;SDS011;29216;51.248;6.808;2024-03-08T01:59:14;20.65;;;14.05;;
43248;SDS011;29216;51.248;6.808;2024-03-08T02:01:41;24.10;;;16.00;;
43248;SDS011;29216;51.248;6.808;2024-03-08T02:04:07;22.63;;;15.70;;
43248;SDS011;29216;51.248;6.808;2024-03-08T02:06:33;23.60;;;14.85;;
43248;SDS011;29216;51.248;6.808;2024-03-08T02:08:59;21.60;;;14.52;;
43248;SDS011;29216;51.248;6.808;2024-03-08T02:11:25;24.80;;;15.38;;
43248;SDS011;29216;51.248;6.808;2024-03-08T02:13:51;22.42;;;15.20;;
43248;SDS011;29216;51.248;6.808;2024-03-08T02:16:21;21.52;;;14.85;;
43248;SDS011;29216;51.248;6.808;2024-03-08T02:18:47;22.98;;;15.35;;
43248;SDS011;29216;51.248;6.808;2024-03-08T02:21:13;25.92;;;16.20;;
43248;SDS011;29216;51.248;6.808;2024-03-08T02:23:43;23.88;;;15.27;;
43248;SDS011;29216;51.248;6.808;2024-03-08T02:26:09;23.45;;;14.93;;
43248;SDS011;29216;51.248;6.808;2024-03-08T02:28:35;24.10;;;15.68;;
43248;SDS011;29216;51.248;6.808;2024-03-08T02:31:01;26.40;;;15.27;;
43248;SDS011;29216;51.248;6.808;2024-03-08T02:33:28;25.48;;;16.08;;
43248;SDS011;29216;51.248;6.808;2024-03-08T02:35:54;27.60;;;16.13;;
43248;SDS011;29216;51.248;6.808;2024-03-08T02:38:21;25.35;;;14.98;;
43248;SDS011;29216;51.248;6.808;2024-03-08T02:40:48;23.90;;;15.40;;
43248;SDS011;29216;51.248;6.808;2024-03-08T02:43:14;23.02;;;15.48;;
43248;SDS011;29216;51.248;6.808;2024-03-08T02:45:40;23.67;;;15.70;;
43248;SDS011;29216;51.248;6.808;2024-03-08T02:48:10;22.70;;;15.32;;
43248;SDS011;29216;51.248;6.808;2024-03-08T02:50:36;25.95;;;15.43;;
43248;SDS011;29216;51.248;6.808;2024-03-08T02:53:04;24.13;;;15.75;;
43248;SDS011;29216;51.248;6.808;2024-03-08T02:55:30;26.77;;;16.38;;
43248;SDS011;29216;51.248;6.808;2024-03-08T02:57:58;26.45;;;16.23;;
43248;SDS011;29216;51.248;6.808;2024-03-08T03:00:24;25.92;;;15.73;;
43248;SDS011;29216;51.248;6.808;2024-03-08T03:02:51;22.40;;;15.60;;
43248;SDS011;29216;51.248;6.808;2024-03-08T03:05:19;27.23;;;16.05;;
43248;SDS011;29216;51.248;6.808;2024-03-08T03:07:45;25.40;;;16.20;;
43248;SDS011;29216;51.248;6.808;2024-03-08T03:10:11;25.73;;;16.05;;
43248;SDS011;29216;51.248;6.808;2024-03-08T03:12:37;24.40;;;15.73;;
43248;SDS011;29216;51.248;6.808;2024-03-08T03:15:03;25.00;;;16.33;;
43248;SDS011;29216;51.248;6.808;2024-03-08T03:17:31;27.48;;;17.45;;
43248;SDS011;29216;51.248;6.808;2024-03-08T03:19:57;26.40;;;16.38;;
43248;SDS011;29216;51.248;6.808;2024-03-08T03:22:23;26.08;;;16.48;;
43248;SDS011;29216;51.248;6.808;2024-03-08T03:24:50;26.77;;;16.33;;
43248;SDS011;29216;51.248;6.808;2024-03-08T03:27:16;26.83;;;16.10;;
43248;SDS011;29216;51.248;6.808;2024-03-08T03:29:43;24.65;;;15.90;;
43248;SDS011;29216;51.248;6.808;2024-03-08T03:32:14;26.85;;;16.48;;
43248;SDS011;29216;51.248;6.808;2024-03-08T03:34:41;21.65;;;15.05;;
43248;SDS011;29216;51.248;6.808;2024-03-08T03:37:09;25.65;;;15.95;;
43248;SDS011;29216;51.248;6.808;2024-03-08T03:39:37;26.42;;;17.13;;
43248;SDS011;29216;51.248;6.808;2024-03-08T03:42:18;25.60;;;16.33;;
43248;SDS011;29216;51.248;6.808;2024-03-08T03:44:47;27.92;;;16.00;;
43248;SDS011;29216;51.248;6.808;2024-03-08T03:47:14;26.98;;;16.77;;
43248;SDS011;29216;51.248;6.808;2024-03-08T03:49:41;25.25;;;15.80;;
43248;SDS011;29216;51.248;6.808;2024-03-08T03:52:07;27.40;;;16.85;;
43248;SDS011;29216;51.248;6.808;2024-03-08T03:54:33;28.50;;;17.20;;
43248;SDS011;29216;51.248;6.808;2024-03-08T03:56:59;27.30;;;17.67;;
43248;SDS011;29216;51.248;6.808;2024-03-08T03:59:29;26.80;;;18.15;;
43248;SDS011;29216;51.248;6.808;2024-03-08T04:01:56;25.38;;;17.75;;
43248;SDS011;29216;51.248;6.808;2024-03-08T04:04:22;30.55;;;17.48;;
43248;SDS011;29216;51.248;6.808;2024-03-08T04:06:49;24.42;;;16.25;;
43248;SDS011;29216;51.248;6.808;2024-03-08T04:09:16;24.63;;;16.23;;
43248;SDS011;29216;51.248;6.808;2024-03-08T04:11:44;25.15;;;17.00;;
43248;SDS011;29216;51.248;6.808;2024-03-08T04:14:10;26.10;;;16.45;;
43248;SDS011;29216;51.248;6.808;2024-03-08T04:16:37;31.65;;;17.95;;
43248;SDS011;29216;51.248;6.808;2024-03-08T04:19:03;25.40;;;16.73;;
43248;SDS011;29216;51.248;6.808;2024-03-08T04:21:32;26.57;;;17.67;;
43248;SDS011;29216;51.248;6.808;2024-03-08T04:23:58;26.17;;;18.33;;
43248;SDS011;29216;51.248;6.808;2024-03-08T04:26:24;27.73;;;17.03;;
43248;SDS011;29216;51.248;6.808;2024-03-08T04:28:51;31.10;;;18.17;;
43248;SDS011;29216;51.248;6.808;2024-03-08T04:31:17;30.97;;;18.53;;
43248;SDS011;29216;51.248;6.808;2024-03-08T04:33:43;32.10;;;18.73;;
43248;SDS011;29216;51.248;6.808;2024-03-08T04:36:09;29.83;;;17.43;;
43248;SDS011;29216;51.248;6.808;2024-03-08T04:38:38;27.00;;;17.38;;
43248;SDS011;29216;51.248;6.808;2024-03-08T04:41:06;30.07;;;19.23;;
43248;SDS011;29216;51.248;6.808;2024-03-08T04:43:32;26.90;;;17.73;;
43248;SDS011;29216;51.248;6.808;2024-03-08T04:45:58;30.63;;;18.17;;
43248;SDS011;29216;51.248;6.808;2024-03-08T04:48:24;26.87;;;17.97;;
43248;SDS011;29216;51.248;6.808;2024-03-08T04:50:53;29.30;;;18.10;;
43248;SDS011;29216;51.248;6.808;2024-03-08T04:53:20;30.20;;;18.07;;
43248;SDS011;29216;51.248;6.808;2024-03-08T04:55:46;26.70;;;17.50;;
43248;SDS011;29216;51.248;6.808;2024-03-08T04:58:12;30.03;;;17.77;;
43248;SDS011;29216;51.248;6.808;2024-03-08T05:00:38;28.17;;;18.03;;
43248;SDS011;29216;51.248;6.808;2024-03-08T05:03:04;28.83;;;19.17;;
43248;SDS011;29216;51.248;6.808;2024-03-08T05:05:30;31.07;;;18.87;;
43248;SDS011;29216;51.248;6.808;2024-03-08T05:07:58;31.93;;;18.70;;
43248;SDS011;29216;51.248;6.808;2024-03-08T05:10:24;27.70;;;17.10;;
43248;SDS011;29216;51.248;6.808;2024-03-08T05:12:49;29.73;;;19.27;;
43248;SDS011;29216;51.248;6.808;2024-03-08T05:15:16;28.30;;;19.00;;
43248;SDS011;29216;51.248;6.808;2024-03-08T05:17:42;28.07;;;17.53;;
43248;SDS011;29216;51.248;6.808;2024-03-08T05:20:09;28.90;;;19.40;;
43248;SDS011;29216;51.248;6.808;2024-03-08T05:22:38;29.20;;;17.92;;
43248;SDS011;29216;51.248;6.808;2024-03-08T05:25:05;25.73;;;17.47;;
43248;SDS011;29216;51.248;6.808;2024-03-08T05:27:33;30.00;;;18.57;;
43248;SDS011;29216;51.248;6.808;2024-03-08T05:29:59;28.83;;;18.23;;
43248;SDS011;29216;51.248;6.808;2024-03-08T05:32:25;29.00;;;17.90;;
43248;SDS011;29216;51.248;6.808;2024-03-08T05:34:51;29.35;;;18.08;;
43248;SDS011;29216;51.248;6.808;2024-03-08T05:37:17;29.10;;;17.63;;
43248;SDS011;29216;51.248;6.808;2024-03-08T05:39:45;33.03;;;19.67;;
43248;SDS011;29216;51.248;6.808;2024-03-08T05:42:11;30.70;;;18.40;;
43248;SDS011;29216;51.248;6.808;2024-03-08T05:44:37;30.10;;;19.00;;
43248;SDS011;29216;51.248;6.808;2024-03-08T05:47:05;31.08;;;18.08;;
43248;SDS011;29216;51.248;6.808;2024-03-08T05:49:32;29.40;;;18.43;;
43248;SDS011;29216;51.248;6.808;2024-03-08T05:51:59;28.88;;;19.02;;
43248;SDS011;29216;51.248;6.808;2024-03-08T05:54:25;31.93;;;18.30;;
43248;SDS011;29216;51.248;6.808;2024-03-08T05:56:52;29.65;;;18.90;;
43248;SDS011;29216;51.248;6.808;2024-03-08T05:59:19;28.50;;;18.30;;
43248;SDS011;29216;51.248;6.808;2024-03-08T06:01:45;30.17;;;17.93;;
43248;SDS011;29216;51.248;6.808;2024-03-08T06:04:12;30.07;;;19.37;;
43248;SDS011;29216;51.248;6.808;2024-03-08T06:06:39;30.53;;;18.07;;
43248;SDS011;29216;51.248;6.808;2024-03-08T06:09:05;32.17;;;20.40;;
43248;SDS011;29216;51.248;6.808;2024-03-08T06:11:36;31.50;;;18.97;;
43248;SDS011;29216;51.248;6.808;2024-03-08T06:14:03;30.73;;;18.63;;
43248;SDS011;29216;51.248;6.808;2024-03-08T06:16:29;27.27;;;17.73;;
43248;SDS011;29216;51.248;6.808;2024-03-08T06:18:57;32.95;;;18.92;;
43248;SDS011;29216;51.248;6.808;2024-03-08T06:21:26;32.70;;;19.73;;
43248;SDS011;29216;51.248;6.808;2024-03-08T06:23:55;29.43;;;18.27;;
43248;SDS011;29216;51.248;6.808;2024-03-08T06:26:24;28.37;;;18.40;;
43248;SDS011;29216;51.248;6.808;2024-03-08T06:28:53;29.40;;;18.80;;
43248;SDS011;29216;51.248;6.808;2024-03-08T06:31:19;30.40;;;19.07;;
43248;SDS011;29216;51.248;6.808;2024-03-08T06:33:45;29.67;;;19.30;;
43248;SDS011;29216;51.248;6.808;2024-03-08T06:36:11;30.02;;;19.17;;
43248;SDS011;29216;51.248;6.808;2024-03-08T06:38:38;32.42;;;18.75;;
43248;SDS011;29216;51.248;6.808;2024-03-08T06:41:08;30.85;;;20.67;;
43248;SDS011;29216;51.248;6.808;2024-03-08T06:43:34;33.10;;;19.30;;
43248;SDS011;29216;51.248;6.808;2024-03-08T06:46:00;32.67;;;19.10;;
43248;SDS011;29216;51.248;6.808;2024-03-08T06:48:28;33.05;;;19.50;;
43248;SDS011;29216;51.248;6.808;2024-03-08T06:50:54;33.03;;;19.10;;
43248;SDS011;29216;51.248;6.808;2024-03-08T06:53:21;33.47;;;18.30;;
43248;SDS011;29216;51.248;6.808;2024-03-08T06:55:47;36.90;;;18.50;;
43248;SDS011;29216;51.248;6.808;2024-03-08T06:58:13;29.20;;;17.30;;
43248;SDS011;29216;51.248;6.808;2024-03-08T07:00:39;27.60;;;17.75;;
43248;SDS011;29216;51.248;6.808;2024-03-08T07:03:08;25.95;;;15.57;;
43248;SDS011;29216;51.248;6.808;2024-03-08T07:05:37;25.88;;;15.48;;
43248;SDS011;29216;51.248;6.808;2024-03-08T07:08:04;23.60;;;15.07;;
43248;SDS011;29216;51.248;6.808;2024-03-08T07:10:31;24.13;;;15.23;;
43248;SDS011;29216;51.248;6.808;2024-03-08T07:12:57;25.80;;;14.75;;
43248;SDS011;29216;51.248;6.808;2024-03-08T07:15:23;22.80;;;14.98;;
43248;SDS011;29216;51.248;6.808;2024-03-08T07:17:50;23.17;;;14.65;;
43248;SDS011;29216;51.248;6.808;2024-03-08T07:20:17;19.80;;;14.38;;
43248;SDS011;29216;51.248;6.808;2024-03-08T07:22:47;20.42;;;13.70;;
43248;SDS011;29216;51.248;6.808;2024-03-08T07:25:15;23.48;;;15.25;;
43248;SDS011;29216;51.248;6.808;2024-03-08T07:27:49;20.05;;;14.02;;
43248;SDS011;29216;51.248;6.808;2024-03-08T07:30:15;21.45;;;14.43;;
43248;SDS011;29216;51.248;6.808;2024-03-08T07:33:01;19.20;;;13.90;;
43248;SDS011;29216;51.248;6.808;2024-03-08T07:35:28;20.85;;;13.75;;
43248;SDS011;29216;51.248;6.808;2024-03-08T07:37:54;18.63;;;13.70;;
43248;SDS011;29216;51.248;6.808;2024-03-08T07:40:20;21.02;;;13.48;;
43248;SDS011;29216;51.248;6.808;2024-03-08T07:42:46;18.13;;;13.80;;
43248;SDS011;29216;51.248;6.808;2024-03-08T07:45:12;19.05;;;13.65;;
43248;SDS011;29216;51.248;6.808;2024-03-08T07:47:38;24.02;;;14.18;;
43248;SDS011;29216;51.248;6.808;2024-03-08T07:50:05;21.52;;;13.57;;
43248;SDS011;29216;51.248;6.808;2024-03-08T07:52:33;21.17;;;14.63;;
43248;SDS011;29216;51.248;6.808;2024-03-08T07:54:59;20.73;;;13.93;;
43248;SDS011;29216;51.248;6.808;2024-03-08T07:57:25;20.25;;;13.77;;
43248;SDS011;29216;51.248;6.808;2024-03-08T07:59:51;18.85;;;14.27;;
43248;SDS011;29216;51.248;6.808;2024-03-08T08:02:17;19.90;;;13.75;;
43248;SDS011;29216;51.248;6.808;2024-03-08T08:04:43;19.40;;;13.93;;
43248;SDS011;29216;51.248;6.808;2024-03-08T08:07:12;16.23;;;13.68;;
43248;SDS011;29216;51.248;6.808;2024-03-08T08:09:39;18.08;;;13.07;;
43248;SDS011;29216;51.248;6.808;2024-03-08T08:12:07;18.95;;;13.27;;
43248;SDS011;29216;51.248;6.808;2024-03-08T08:14:37;19.10;;;13.80;;
43248;SDS011;29216;51.248;6.808;2024-03-08T08:17:03;16.95;;;13.63;;
43248;SDS011;29216;51.248;6.808;2024-03-08T08:19:29;16.77;;;13.00;;
43248;SDS011;29216;51.248;6.808;2024-03-08T08:21:57;19.40;;;13.20;;
43248;SDS011;29216;51.248;6.808;2024-03-08T08:24:23;17.88;;;12.88;;
43248;SDS011;29216;51.248;6.808;2024-03-08T08:26:49;16.33;;;12.70;;
43248;SDS011;29216;51.248;6.808;2024-03-08T08:29:15;16.95;;;12.90;;
43248;SDS011;29216;51.248;6.808;2024-03-08T08:31:41;15.85;;;12.05;;
43248;SDS011;29216;51.248;6.808;2024-03-08T08:34:09;16.75;;;12.55;;
43248;SDS011;29216;51.248;6.808;2024-03-08T08:36:36;18.75;;;11.93;;
43248;SDS011;29216;51.248;6.808;2024-03-08T08:39:03;16.60;;;12.05;;
43248;SDS011;29216;51.248;6.808;2024-03-08T08:41:30;17.15;;;12.88;;
43248;SDS011;29216;51.248;6.808;2024-03-08T08:43:56;15.73;;;11.93;;
43248;SDS011;29216;51.248;6.808;2024-03-08T08:46:22;17.33;;;11.95;;
43248;SDS011;29216;51.248;6.808;2024-03-08T08:48:48;14.77;;;11.05;;
43248;SDS011;29216;51.248;6.808;2024-03-08T08:51:15;17.95;;;10.93;;
43248;SDS011;29216;51.248;6.808;2024-03-08T08:53:41;17.15;;;11.70;;
43248;SDS011;29216;51.248;6.808;2024-03-08T08:56:14;17.38;;;11.45;;
43248;SDS011;29216;51.248;6.808;2024-03-08T08:58:41;14.63;;;11.20;;
43248;SDS011;29216;51.248;6.808;2024-03-08T09:01:07;17.83;;;11.48;;
43248;SDS011;29216;51.248;6.808;2024-03-08T09:03:35;15.88;;;11.38;;
43248;SDS011;29216;51.248;6.808;2024-03-08T09:06:02;17.55;;;11.48;;
43248;SDS011;29216;51.248;6.808;2024-03-08T09:08:29;15.75;;;11.43;;
43248;SDS011;29216;51.248;6.808;2024-03-08T09:10:55;18.58;;;12.07;;
43248;SDS011;29216;51.248;6.808;2024-03-08T09:13:21;16.30;;;11.40;;
43248;SDS011;29216;51.248;6.808;2024-03-08T09:15:47;16.75;;;10.82;;
43248;SDS011;29216;51.248;6.808;2024-03-08T09:18:13;18.48;;;11.18;;
43248;SDS011;29216;51.248;6.808;2024-03-08T09:20:39;15.50;;;10.65;;
43248;SDS011;29216;51.248;6.808;2024-03-08T09:23:06;17.75;;;11.35;;
43248;SDS011;29216;51.248;6.808;2024-03-08T09:25:33;15.25;;;10.90;;
43248;SDS011;29216;51.248;6.808;2024-03-08T09:27:59;17.27;;;12.43;;
43248;SDS011;29216;51.248;6.808;2024-03-08T09:30:25;15.68;;;10.90;;
43248;SDS011;29216;51.248;6.808;2024-03-08T09:32:51;15.02;;;10.75;;
43248;SDS011;29216;51.248;6.808;2024-03-08T09:35:17;21.95;;;10.32;;
43248;SDS011;29216;51.248;6.808;2024-03-08T09:37:43;15.55;;;11.00;;
43248;SDS011;29216;51.248;6.808;2024-03-08T09:40:09;14.18;;;10.05;;
43248;SDS011;29216;51.248;6.808;2024-03-08T09:42:40;18.58;;;11.07;;
43248;SDS011;29216;51.248;6.808;2024-03-08T09:45:08;16.90;;;11.20;;
43248;SDS011;29216;51.248;6.808;2024-03-08T09:47:40;15.35;;;10.77;;
43248;SDS011;29216;51.248;6.808;2024-03-08T09:50:07;15.45;;;10.95;;
43248;SDS011;29216;51.248;6.808;2024-03-08T09:52:35;17.42;;;11.02;;
43248;SDS011;29216;51.248;6.808;2024-03-08T09:55:02;15.82;;;11.18;;
43248;SDS011;29216;51.248;6.808;2024-03-08T09:57:29;14.93;;;10.85;;
43248;SDS011;29216;51.248;6.808;2024-03-08T09:59:55;16.35;;;10.82;;
43248;SDS011;29216;51.248;6.808;2024-03-08T10:02:21;17.83;;;11.07;;
43248;SDS011;29216;51.248;6.808;2024-03-08T10:04:48;16.55;;;10.98;;
43248;SDS011;29216;51.248;6.808;2024-03-08T10:07:14;16.80;;;11.60;;
43248;SDS011;29216;51.248;6.808;2024-03-08T10:09:40;15.57;;;10.63;;
43248;SDS011;29216;51.248;6.808;2024-03-08T10:12:12;15.27;;;10.27;;
43248;SDS011;29216;51.248;6.808;2024-03-08T10:14:39;15.30;;;10.68;;
43248;SDS011;29216;51.248;6.808;2024-03-08T10:17:06;13.40;;;9.27;;
43248;SDS011;29216;51.248;6.808;2024-03-08T10:19:32;14.55;;;10.30;;
43248;SDS011;29216;51.248;6.808;2024-03-08T10:21:59;14.05;;;9.85;;
43248;SDS011;29216;51.248;6.808;2024-03-08T10:24:25;14.73;;;10.05;;
43248;SDS011;29216;51.248;6.808;2024-03-08T10:27:01;15.82;;;10.73;;
43248;SDS011;29216;51.248;6.808;2024-03-08T10:29:31;16.20;;;9.95;;
43248;SDS011;29216;51.248;6.808;2024-03-08T10:31:57;12.98;;;9.00;;
43248;SDS011;29216;51.248;6.808;2024-03-08T10:34:23;15.77;;;10.02;;
43248;SDS011;29216;51.248;6.808;2024-03-08T10:36:50;14.05;;;9.32;;
43248;SDS011;29216;51.248;6.808;2024-03-08T10:39:23;13.90;;;9.68;;
43248;SDS011;29216;51.248;6.808;2024-03-08T10:41:53;16.42;;;9.65;;
43248;SDS011;29216;51.248;6.808;2024-03-08T10:49:45;13.32;;;8.48;;
43248;SDS011;29216;51.248;6.808;2024-03-08T10:52:13;14.10;;;8.80;;
43248;SDS011;29216;51.248;6.808;2024-03-08T10:54:42;12.40;;;8.65;;
43248;SDS011;29216;51.248;6.808;2024-03-08T10:57:09;12.25;;;8.70;;
43248;SDS011;29216;51.248;6.808;2024-03-08T10:59:38;12.43;;;8.77;;
43248;SDS011;29216;51.248;6.808;2024-03-08T11:02:04;12.50;;;8.50;;
43248;SDS011;29216;51.248;6.808;2024-03-08T11:04:33;12.75;;;8.77;;
43248;SDS011;29216;51.248;6.808;2024-03-08T11:07:02;14.70;;;8.63;;
43248;SDS011;29216;51.248;6.808;2024-03-08T11:14:43;12.25;;;8.35;;
43248;SDS011;29216;51.248;6.808;2024-03-08T11:17:12;9.63;;;7.60;;
43248;SDS011;29216;51.248;6.808;2024-03-08T11:19:44;10.80;;;8.18;;
43248;SDS011;29216;51.248;6.808;2024-03-08T11:22:13;11.52;;;8.30;;
43248;SDS011;29216;51.248;6.808;2024-03-08T11:24:48;11.75;;;8.27;;
43248;SDS011;29216;51.248;6.808;2024-03-08T11:27:14;11.35;;;8.07;;
43248;SDS011;29216;51.248;6.808;2024-03-08T11:29:40;11.57;;;8.25;;
43248;SDS011;29216;51.248;6.808;2024-03-08T11:34:33;10.20;;;7.60;;
43248;SDS011;29216;51.248;6.808;2024-03-08T11:36:59;12.07;;;8.63;;
43248;SDS011;29216;51.248;6.808;2024-03-08T11:39:25;11.98;;;8.02;;
43248;SDS011;29216;51.248;6.808;2024-03-08T11:41:53;10.95;;;8.23;;
43248;SDS011;29216;51.248;6.808;2024-03-08T11:44:20;12.07;;;8.45;;
43248;SDS011;29216;51.248;6.808;2024-03-08T11:46:46;13.70;;;8.73;;
43248;SDS011;29216;51.248;6.808;2024-03-08T11:49:13;12.95;;;8.57;;
43248;SDS011;29216;51.248;6.808;2024-03-08T11:51:39;12.65;;;8.40;;
43248;SDS011;29216;51.248;6.808;2024-03-08T11:54:06;12.95;;;8.52;;
43248;SDS011;29216;51.248;6.808;2024-03-08T11:56:32;14.05;;;9.02;;
43248;SDS011;29216;51.248;6.808;2024-03-08T11:58:59;14.70;;;8.73;;
43248;SDS011;29216;51.248;6.808;2024-03-08T12:01:26;9.90;;;7.57;;
43248;SDS011;29216;51.248;6.808;2024-03-08T12:03:56;10.38;;;7.97;;
43248;SDS011;29216;51.248;6.808;2024-03-08T12:06:26;12.65;;;8.75;;
43248;SDS011;29216;51.248;6.808;2024-03-08T12:08:54;12.55;;;8.35;;
43248;SDS011;29216;51.248;6.808;2024-03-08T12:11:20;11.85;;;8.20;;
43248;SDS011;29216;51.248;6.808;2024-03-08T12:13:49;12.07;;;8.63;;
43248;SDS011;29216;51.248;6.808;2024-03-08T12:16:17;11.75;;;8.23;;
43248;SDS011;29216;51.248;6.808;2024-03-08T12:18:43;11.45;;;8.45;;
43248;SDS011;29216;51.248;6.808;2024-03-08T12:21:11;11.70;;;7.95;;
43248;SDS011;29216;51.248;6.808;2024-03-08T12:26:14;9.48;;;6.80;;
43248;SDS011;29216;51.248;6.808;2024-03-08T12:28:41;10.57;;;7.13;;
43248;SDS011;29216;51.248;6.808;2024-03-08T12:31:09;11.32;;;8.25;;
43248;SDS011;29216;51.248;6.808;2024-03-08T12:36:18;9.93;;;7.20;;
43248;SDS011;29216;51.248;6.808;2024-03-08T12:38:45;10.07;;;6.97;;
43248;SDS011;29216;51.248;6.808;2024-03-08T12:41:17;10.77;;;7.78;;
43248;SDS011;29216;51.248;6.808;2024-03-08T12:43:44;11.70;;;7.20;;
43248;SDS011;29216;51.248;6.808;2024-03-08T12:46:16;9.95;;;7.78;;
43248;SDS011;29216;51.248;6.808;2024-03-08T12:48:42;8.52;;;6.65;;
43248;SDS011;29216;51.248;6.808;2024-03-08T12:51:12;11.45;;;7.35;;
43248;SDS011;29216;51.248;6.808;2024-03-08T12:53:38;11.38;;;7.82;;
43248;SDS011;29216;51.248;6.808;2024-03-08T12:56:09;9.88;;;7.57;;
43248;SDS011;29216;51.248;6.808;2024-03-08T12:58:35;10.05;;;7.35;;
43248;SDS011;29216;51.248;6.808;2024-03-08T13:01:02;9.27;;;6.97;;
43248;SDS011;29216;51.248;6.808;2024-03-08T13:03:34;9.60;;;7.22;;
43248;SDS011;29216;51.248;6.808;2024-03-08T13:06:04;10.13;;;7.50;;
43248;SDS011;29216;51.248;6.808;2024-03-08T13:08:38;9.45;;;7.13;;
43248;SDS011;29216;51.248;6.808;2024-03-08T13:11:05;10.68;;;7.40;;
43248;SDS011;29216;51.248;6.808;2024-03-08T13:13:32;10.90;;;7.05;;
43248;SDS011;29216;51.248;6.808;2024-03-08T13:16:00;11.55;;;8.20;;
43248;SDS011;29216;51.248;6.808;2024-03-08T13:18:26;10.25;;;7.10;;
43248;SDS011;29216;51.248;6.808;2024-03-08T13:20:53;14.15;;;7.85;;
43248;SDS011;29216;51.248;6.808;2024-03-08T13:23:19;13.05;;;7.90;;
43248;SDS011;29216;51.248;6.808;2024-03-08T13:25:45;13.60;;;6.95;;
43248;SDS011;29216;51.248;6.808;2024-03-08T13:28:15;11.40;;;7.55;;
43248;SDS011;29216;51.248;6.808;2024-03-08T13:30:42;9.63;;;6.60;;
43248;SDS011;29216;51.248;6.808;2024-03-08T13:33:09;9.90;;;7.03;;
43248;SDS011;29216;51.248;6.808;2024-03-08T13:35:35;10.25;;;7.72;;
43248;SDS011;29216;51.248;6.808;2024-03-08T13:38:02;10.15;;;6.85;;
43248;SDS011;29216;51.248;6.808;2024-03-08T13:40:29;10.40;;;7.70;;
43248;SDS011;29216;51.248;6.808;2024-03-08T13:42:56;12.77;;;7.18;;
43248;SDS011;29216;51.248;6.808;2024-03-08T13:45:21;10.85;;;8.38;;
43248;SDS011;29216;51.248;6.808;2024-03-08T13:47:49;9.38;;;7.25;;
43248;SDS011;29216;51.248;6.808;2024-03-08T13:50:16;9.77;;;7.10;;
43248;SDS011;29216;51.248;6.808;2024-03-08T13:52:46;14.15;;;7.70;;
43248;SDS011;29216;51.248;6.808;2024-03-08T13:55:16;10.15;;;7.15;;
43248;SDS011;29216;51.248;6.808;2024-03-08T13:57:42;11.15;;;7.53;;
43248;SDS011;29216;51.248;6.808;2024-03-08T14:00:10;10.50;;;7.40;;
43248;SDS011;29216;51.248;6.808;2024-03-08T14:02:36;10.85;;;7.53;;
43248;SDS011;29216;51.248;6.808;2024-03-08T14:05:02;9.75;;;7.25;;
43248;SDS011;29216;51.248;6.808;2024-03-08T14:07:28;11.43;;;7.90;;
43248;SDS011;29216;51.248;6.808;2024-03-08T14:09:54;12.25;;;7.75;;
43248;SDS011;29216;51.248;6.808;2024-03-08T14:12:20;12.63;;;6.95;;
43248;SDS011;29216;51.248;6.808;2024-03-08T14:14:46;12.07;;;7.63;;
43248;SDS011;29216;51.248;6.808;2024-03-08T14:17:12;12.85;;;7.93;;
43248;SDS011;29216;51.248;6.808;2024-03-08T14:19:42;10.93;;;7.70;;
43248;SDS011;29216;51.248;6.808;2024-03-08T14:22:08;10.50;;;7.60;;
43248;SDS011;29216;51.248;6.808;2024-03-08T14:24:38;10.98;;;7.85;;
43248;SDS011;29216;51.248;6.808;2024-03-08T14:27:04;11.45;;;7.78;;
43248;SDS011;29216;51.248;6.808;2024-03-08T14:29:33;11.45;;;8.25;;
43248;SDS011;29216;51.248;6.808;2024-03-08T14:31:59;10.20;;;7.75;;
43248;SDS011;29216;51.248;6.808;2024-03-08T14:34:26;13.50;;;8.15;;
43248;SDS011;29216;51.248;6.808;2024-03-08T14:36:54;11.13;;;8.23;;
43248;SDS011;29216;51.248;6.808;2024-03-08T14:39:20;11.77;;;8.27;;
43248;SDS011;29216;51.248;6.808;2024-03-08T14:41:50;11.18;;;7.65;;
43248;SDS011;29216;51.248;6.808;2024-03-08T14:44:22;12.70;;;8.27;;